ΕΜΥ, Εθνική Μετεωρολογική Υπηρεσία - Δελτία Καιρού, Προγνώσεις

ΑΕΡΟΝΑΥΤΙΛΙΑ

GREEK AIRPORTS CODES

LGEL 240050Z 30004KT 9999 FEW025 18/11 Q1008 RMK FEW070=

EUROPEAN AIRPORTS CODES

TAF LGEL 232300Z 2400/2424 30012KT 9999 FEW025 PROB40 TEMPO 2410/2416 5000 RA FEW018TCU BKN020 BKN070 PROB30 TEMPO 2411/2415 4000 TSRA FEW018CB BKN020 BKN070=